createdAt,value
2022-11-15T00:00:57.160Z,27.10
2022-11-15T00:03:26.094Z,26.70
2022-11-15T00:05:53.163Z,25.40
2022-11-15T00:08:20.362Z,30.10
2022-11-15T00:10:57.814Z,33.53
2022-11-15T00:13:24.757Z,27.13
2022-11-15T00:15:51.626Z,25.87
2022-11-15T00:18:19.023Z,28.40
2022-11-15T00:20:46.017Z,24.63
2022-11-15T00:23:13.083Z,26.87
2022-11-15T00:25:40.029Z,26.17
2022-11-15T00:28:06.751Z,27.90
2022-11-15T00:30:33.569Z,26.13
2022-11-15T00:33:04.583Z,30.40
2022-11-15T00:35:33.788Z,28.93
2022-11-15T00:38:00.986Z,25.67
2022-11-15T00:40:28.234Z,22.17
2022-11-15T00:42:55.020Z,24.30
2022-11-15T00:45:21.920Z,23.43
2022-11-15T00:47:48.675Z,26.03
2022-11-15T00:50:15.785Z,23.10
2022-11-15T00:52:42.874Z,24.23
2022-11-15T00:55:16.136Z,24.63
2022-11-15T00:57:43.105Z,24.63
2022-11-15T01:00:10.917Z,22.67
2022-11-15T01:02:37.667Z,24.57
2022-11-15T01:05:04.730Z,24.37
2022-11-15T01:07:31.509Z,26.77
2022-11-15T01:09:58.472Z,22.03
2022-11-15T01:12:25.251Z,23.63
2022-11-15T01:14:52.009Z,22.53
2022-11-15T01:17:18.762Z,21.00
2022-11-15T01:19:45.467Z,22.77
2022-11-15T01:22:12.290Z,21.57
2022-11-15T01:24:39.077Z,21.77
2022-11-15T01:27:05.894Z,20.33
2022-11-15T01:29:32.644Z,21.97
2022-11-15T01:31:59.581Z,22.47
2022-11-15T01:34:26.263Z,19.90
2022-11-15T01:36:52.978Z,21.00
2022-11-15T01:39:20.085Z,23.60
2022-11-15T01:41:46.926Z,23.20
2022-11-15T01:44:32.014Z,21.67
2022-11-15T01:47:05.305Z,22.63
2022-11-15T01:49:34.816Z,20.53
2022-11-15T01:52:04.625Z,20.57
2022-11-15T01:54:31.840Z,23.33
2022-11-15T01:57:04.993Z,19.33
2022-11-15T01:59:31.994Z,23.93
2022-11-15T02:01:58.931Z,22.00
2022-11-15T02:04:28.699Z,19.00
2022-11-15T02:06:56.262Z,22.97
2022-11-15T02:09:23.398Z,25.27
2022-11-15T02:11:53.115Z,20.40
2022-11-15T02:14:22.428Z,20.20
2022-11-15T02:16:52.086Z,23.77
2022-11-15T02:19:33.892Z,20.63
2022-11-15T02:22:34.434Z,22.73
2022-11-15T02:25:20.450Z,20.37
2022-11-15T02:28:06.019Z,20.87
2022-11-15T02:30:43.951Z,19.83
2022-11-15T02:33:29.632Z,21.00
2022-11-15T02:36:02.573Z,21.03
2022-11-15T02:38:32.360Z,17.20
2022-11-15T02:41:21.037Z,19.63
2022-11-15T02:43:57.632Z,22.33
2022-11-15T02:46:54.840Z,19.27
2022-11-15T02:49:22.517Z,17.83
2022-11-15T02:51:52.000Z,19.70
2022-11-15T02:54:23.205Z,23.13
2022-11-15T02:56:53.304Z,23.77
2022-11-15T02:59:29.072Z,23.00
2022-11-15T03:02:20.664Z,22.43
2022-11-15T03:05:31.613Z,25.23
2022-11-15T03:08:47.214Z,20.30
2022-11-15T03:11:20.560Z,22.57
2022-11-15T03:14:01.499Z,24.80
2022-11-15T03:16:31.073Z,21.70
2022-11-15T03:19:06.336Z,20.50
2022-11-15T03:21:35.045Z,21.63
2022-11-15T03:24:06.371Z,25.60
2022-11-15T03:26:35.941Z,22.33
2022-11-15T03:29:09.316Z,22.83
2022-11-15T03:31:51.187Z,22.83
2022-11-15T03:34:28.382Z,19.77
2022-11-15T03:36:55.594Z,22.43
2022-11-15T03:39:23.900Z,23.60
2022-11-15T03:42:12.404Z,23.50
2022-11-15T03:45:14.438Z,21.10
2022-11-15T03:47:46.518Z,21.87
2022-11-15T03:50:17.069Z,21.57
2022-11-15T03:52:46.786Z,22.10
2022-11-15T03:55:17.935Z,26.60
2022-11-15T03:57:44.914Z,23.43
2022-11-15T04:00:12.248Z,22.00
2022-11-15T04:02:38.973Z,24.13
2022-11-15T04:05:05.978Z,24.10
2022-11-15T04:07:32.804Z,23.43
2022-11-15T04:10:06.654Z,24.73
2022-11-15T04:12:35.955Z,24.77
2022-11-15T04:15:11.717Z,22.80
2022-11-15T04:17:58.211Z,22.23
2022-11-15T04:20:50.686Z,20.77
2022-11-15T04:23:41.760Z,23.83
2022-11-15T04:26:16.061Z,23.27
2022-11-15T04:29:01.526Z,23.27
2022-11-15T04:31:28.859Z,21.20
2022-11-15T04:33:56.466Z,22.23
2022-11-15T04:36:41.750Z,28.33
2022-11-15T04:39:08.999Z,22.07
2022-11-15T04:41:36.103Z,23.97
2022-11-15T04:44:03.008Z,25.17
2022-11-15T04:46:29.829Z,23.53
2022-11-15T04:48:58.856Z,26.23
2022-11-15T04:51:26.514Z,23.60
2022-11-15T04:53:53.325Z,26.33
2022-11-15T04:56:20.882Z,28.03
2022-11-15T04:58:50.843Z,23.00
2022-11-15T05:01:18.395Z,25.57
2022-11-15T05:04:04.544Z,22.93
2022-11-15T05:06:31.919Z,26.30
2022-11-15T05:08:59.185Z,21.83
2022-11-15T05:11:26.370Z,22.90
2022-11-15T05:13:53.796Z,24.20
2022-11-15T05:16:20.611Z,25.47
2022-11-15T05:18:47.375Z,22.50
2022-11-15T05:21:15.735Z,21.57
2022-11-15T05:23:42.690Z,25.77
2022-11-15T05:26:10.855Z,23.30
2022-11-15T05:28:37.789Z,22.23
2022-11-15T05:31:15.926Z,24.10
2022-11-15T05:33:44.304Z,22.83
2022-11-15T05:36:13.780Z,24.97
2022-11-15T05:38:40.934Z,25.97
2022-11-15T05:41:07.986Z,20.13
2022-11-15T05:43:37.989Z,24.77
2022-11-15T05:46:06.039Z,21.40
2022-11-15T05:48:37.115Z,23.93
2022-11-15T05:51:05.910Z,26.43
2022-11-15T05:53:33.318Z,23.10
2022-11-15T05:56:00.586Z,23.80
2022-11-15T05:58:27.429Z,24.73
2022-11-15T06:00:55.771Z,24.83
2022-11-15T06:03:22.586Z,24.13
2022-11-15T06:05:49.396Z,27.83
2022-11-15T06:08:16.116Z,19.90
2022-11-15T06:10:42.920Z,24.23
2022-11-15T06:13:09.746Z,22.60
2022-11-15T06:15:36.599Z,20.13
2022-11-15T06:18:03.753Z,19.70
2022-11-15T06:20:31.276Z,20.37
2022-11-15T06:22:59.958Z,23.30
2022-11-15T06:25:27.527Z,23.13
2022-11-15T06:27:58.169Z,19.50
2022-11-15T06:30:26.577Z,21.73
2022-11-15T06:33:00.166Z,21.10
2022-11-15T06:35:26.965Z,20.47
2022-11-15T06:37:53.791Z,19.43
2022-11-15T06:40:20.644Z,20.10
2022-11-15T06:42:47.403Z,19.90
2022-11-15T06:45:14.275Z,21.50
2022-11-15T06:47:47.775Z,18.43
2022-11-15T06:50:14.758Z,22.80
2022-11-15T06:52:42.610Z,20.37
2022-11-15T06:55:09.852Z,19.30
2022-11-15T06:57:37.478Z,20.07
2022-11-15T07:00:07.689Z,18.13
2022-11-15T07:02:34.461Z,23.37
2022-11-15T07:05:01.138Z,18.40
2022-11-15T07:07:27.956Z,18.23
2022-11-15T07:09:54.854Z,17.00
2022-11-15T07:12:21.694Z,24.70
2022-11-15T07:14:48.412Z,17.87
2022-11-15T07:17:15.173Z,18.87
2022-11-15T07:19:41.957Z,16.80
2022-11-15T07:22:08.845Z,18.20
2022-11-15T07:24:35.611Z,18.40
2022-11-15T07:27:02.501Z,16.37
2022-11-15T07:29:29.389Z,18.40
2022-11-15T07:31:56.444Z,19.17
2022-11-15T07:34:23.321Z,16.77
2022-11-15T07:36:50.253Z,16.90
2022-11-15T07:39:17.157Z,21.90
2022-11-15T07:41:44.569Z,16.03
2022-11-15T07:44:11.351Z,17.80
2022-11-15T07:46:38.128Z,17.03
2022-11-15T07:49:04.879Z,22.83
2022-11-15T07:51:32.218Z,20.53
2022-11-15T07:53:58.940Z,19.03
2022-11-15T07:56:25.714Z,17.63
2022-11-15T07:58:52.513Z,16.30
2022-11-15T08:01:19.376Z,15.40
2022-11-15T08:03:46.198Z,18.40
2022-11-15T08:06:13.002Z,18.80
2022-11-15T08:08:39.890Z,17.30
2022-11-15T08:11:06.664Z,19.23
2022-11-15T08:13:33.759Z,14.80
2022-11-15T08:16:01.959Z,16.17
2022-11-15T08:18:28.688Z,17.93
2022-11-15T08:20:59.729Z,17.43
2022-11-15T08:23:26.521Z,16.50
2022-11-15T08:25:53.223Z,16.23
2022-11-15T08:28:19.895Z,16.80
2022-11-15T08:30:46.659Z,17.70
2022-11-15T08:33:14.892Z,15.17
2022-11-15T08:35:45.008Z,14.30
2022-11-15T08:38:12.127Z,17.63
2022-11-15T08:40:38.910Z,12.20
2022-11-15T08:43:05.811Z,14.33
2022-11-15T08:45:34.760Z,13.27
2022-11-15T08:48:03.199Z,15.30
2022-11-15T08:50:30.185Z,17.23
2022-11-15T08:52:57.055Z,12.63
2022-11-15T08:55:24.963Z,12.57
2022-11-15T08:57:52.071Z,17.20
2022-11-15T09:00:20.980Z,12.23
2022-11-15T09:02:47.827Z,13.67
2022-11-15T09:05:17.121Z,10.77
2022-11-15T09:07:44.496Z,13.43
2022-11-15T09:10:11.565Z,12.47
2022-11-15T09:12:38.472Z,13.80
2022-11-15T09:15:06.583Z,7.50
2022-11-15T09:17:33.382Z,8.77
2022-11-15T09:20:00.290Z,10.53
2022-11-15T09:22:27.114Z,9.80
2022-11-15T09:24:53.903Z,7.17
2022-11-15T09:27:20.675Z,8.00
2022-11-15T09:29:47.394Z,5.37
2022-11-15T09:32:14.335Z,7.27
2022-11-15T09:34:41.118Z,6.67
2022-11-15T09:37:07.858Z,5.67
2022-11-15T09:39:34.601Z,4.60
2022-11-15T09:42:19.209Z,5.63
2022-11-15T09:44:55.395Z,5.63
2022-11-15T09:47:34.400Z,4.80
2022-11-15T09:50:08.837Z,3.10
2022-11-15T09:52:37.733Z,5.53
2022-11-15T09:55:08.903Z,3.23
2022-11-15T09:57:54.458Z,5.13
2022-11-15T10:00:50.035Z,3.50
2022-11-15T10:03:34.454Z,2.77
2022-11-15T10:06:06.257Z,4.20
2022-11-15T10:08:44.577Z,3.47
2022-11-15T10:11:36.697Z,1.97
2022-11-15T10:14:11.394Z,4.70
2022-11-15T10:16:49.346Z,2.47
2022-11-15T10:19:24.019Z,5.07
2022-11-15T10:22:18.603Z,3.37
2022-11-15T10:24:46.772Z,6.40
2022-11-15T10:27:16.285Z,3.77
2022-11-15T10:29:48.197Z,3.83
2022-11-15T10:32:17.622Z,2.37
2022-11-15T10:34:45.245Z,3.93
2022-11-15T10:37:12.433Z,5.07
2022-11-15T10:39:39.484Z,4.37
2022-11-15T10:42:25.913Z,1.33
2022-11-15T10:44:52.641Z,4.00
2022-11-15T10:47:38.900Z,2.60
2022-11-15T10:50:25.924Z,1.57
2022-11-15T10:52:52.814Z,2.73
2022-11-15T10:55:24.919Z,2.07
2022-11-15T10:57:55.296Z,2.80
2022-11-15T11:00:22.083Z,2.47
2022-11-15T11:03:22.013Z,3.73
2022-11-15T11:05:48.765Z,4.20
2022-11-15T11:08:15.441Z,1.57
2022-11-15T11:11:00.249Z,3.60
2022-11-15T11:13:29.958Z,4.30
2022-11-15T11:16:14.718Z,2.90
2022-11-15T11:18:44.520Z,5.63
2022-11-15T11:21:15.824Z,2.50
2022-11-15T11:24:15.881Z,1.67
2022-11-15T11:27:20.451Z,1.50
2022-11-15T11:30:18.014Z,2.00
2022-11-15T11:33:16.023Z,2.80
2022-11-15T11:36:19.525Z,3.77
2022-11-15T11:39:18.308Z,2.80
2022-11-15T11:42:01.541Z,3.57
2022-11-15T11:44:31.008Z,2.20
2022-11-15T11:47:08.623Z,4.30
2022-11-15T11:49:38.190Z,4.23
2022-11-15T11:52:10.350Z,3.00
2022-11-15T11:55:23.425Z,2.30
2022-11-15T11:58:12.033Z,2.97
2022-11-15T12:00:56.948Z,4.10
2022-11-15T12:03:46.679Z,3.93
2022-11-15T12:06:52.342Z,4.03
2022-11-15T12:09:22.073Z,4.33
2022-11-15T12:12:08.673Z,3.63
2022-11-15T12:14:49.429Z,3.10
2022-11-15T12:17:20.698Z,2.40
2022-11-15T12:19:47.599Z,4.80
2022-11-15T12:22:39.898Z,2.97
2022-11-15T12:25:23.736Z,3.37
2022-11-15T12:28:12.762Z,4.10
2022-11-15T12:31:17.715Z,2.60
2022-11-15T12:33:49.458Z,3.93
2022-11-15T12:36:22.061Z,7.07
2022-11-15T12:39:03.927Z,2.80
2022-11-15T12:41:36.416Z,4.57
2022-11-15T12:44:04.714Z,3.33
2022-11-15T12:46:31.406Z,1.73
2022-11-15T12:49:20.749Z,3.37
2022-11-15T12:51:50.473Z,1.80
2022-11-15T12:54:23.224Z,3.40
2022-11-15T12:57:08.357Z,2.70
2022-11-15T13:00:03.534Z,1.63
2022-11-15T13:02:36.978Z,1.67
2022-11-15T13:05:21.412Z,3.67
2022-11-15T13:07:48.150Z,1.60
2022-11-15T13:10:14.883Z,2.43
2022-11-15T13:12:47.813Z,1.23
2022-11-15T13:15:14.500Z,1.20
2022-11-15T13:17:48.589Z,3.60
2022-11-15T13:20:15.442Z,2.53
2022-11-15T13:23:01.986Z,3.63
2022-11-15T13:25:40.583Z,2.67
2022-11-15T13:28:12.421Z,2.00
2022-11-15T13:30:39.261Z,3.63
2022-11-15T13:33:22.003Z,1.67
2022-11-15T13:35:58.972Z,2.57
2022-11-15T13:38:25.650Z,3.60
2022-11-15T13:40:52.499Z,1.67
2022-11-15T13:43:22.170Z,3.70
2022-11-15T13:46:25.753Z,2.70
2022-11-15T13:48:57.823Z,2.47
2022-11-15T13:51:45.762Z,1.27
2022-11-15T13:54:25.351Z,2.30
2022-11-15T13:56:59.536Z,1.23
2022-11-15T13:59:35.936Z,2.53
2022-11-15T14:02:25.295Z,3.83
2022-11-15T14:04:56.288Z,4.87
2022-11-15T14:07:26.415Z,1.57
2022-11-15T14:09:53.553Z,3.93
2022-11-15T14:12:35.495Z,4.00
2022-11-15T14:15:39.531Z,3.47
2022-11-15T14:18:06.962Z,1.43
2022-11-15T14:20:39.312Z,3.77
2022-11-15T14:23:20.734Z,2.57
2022-11-15T14:25:58.633Z,2.33
2022-11-15T14:28:25.375Z,1.30
2022-11-15T14:30:57.576Z,1.77
2022-11-15T14:33:26.315Z,2.47
2022-11-15T14:35:53.753Z,1.83
2022-11-15T14:38:20.598Z,3.70
2022-11-15T14:40:47.409Z,2.03
2022-11-15T14:43:14.640Z,2.37
2022-11-15T14:45:41.822Z,3.03
2022-11-15T14:48:10.502Z,2.10
2022-11-15T14:50:37.744Z,1.83
2022-11-15T14:53:05.571Z,5.13
2022-11-15T14:55:37.281Z,3.60
2022-11-15T14:58:05.655Z,4.73
2022-11-15T15:00:35.197Z,9.93
2022-11-15T15:03:03.083Z,3.07
2022-11-15T15:05:33.901Z,1.87
2022-11-15T15:08:01.169Z,2.47
2022-11-15T15:10:42.297Z,2.10
2022-11-15T15:13:29.632Z,4.43
2022-11-15T15:15:56.362Z,1.90
2022-11-15T15:18:23.103Z,4.67
2022-11-15T15:21:03.933Z,4.27
2022-11-15T15:23:32.030Z,3.03
2022-11-15T15:25:59.249Z,2.40
2022-11-15T15:28:29.983Z,2.17
2022-11-15T15:31:00.953Z,3.10
2022-11-15T15:33:27.798Z,5.57
2022-11-15T15:35:54.577Z,1.00
2022-11-15T15:38:22.604Z,2.47
2022-11-15T15:40:51.514Z,5.10
2022-11-15T15:43:18.543Z,2.50
2022-11-15T15:45:46.150Z,3.50
2022-11-15T15:48:15.202Z,3.17
2022-11-15T15:50:43.905Z,5.53
2022-11-15T15:53:11.761Z,2.40
2022-11-15T15:55:39.064Z,2.30
2022-11-15T15:58:06.373Z,1.40
2022-11-15T16:00:34.676Z,3.07
2022-11-15T16:03:01.479Z,4.13
2022-11-15T16:05:28.350Z,2.57
2022-11-15T16:07:55.231Z,5.33
2022-11-15T16:10:23.807Z,3.40
2022-11-15T16:12:50.638Z,4.17
2022-11-15T16:15:17.668Z,2.13
2022-11-15T16:17:55.532Z,2.60
2022-11-15T16:20:35.935Z,8.80
2022-11-15T16:23:09.049Z,3.03
2022-11-15T16:25:45.472Z,3.53
2022-11-15T16:28:25.502Z,5.67
2022-11-15T16:31:02.275Z,2.30
2022-11-15T16:33:29.090Z,3.70
2022-11-15T16:35:55.914Z,1.63
2022-11-15T16:38:22.714Z,4.67
2022-11-15T16:40:49.518Z,3.63
2022-11-15T16:43:16.433Z,3.43
2022-11-15T16:45:43.230Z,2.83
2022-11-15T16:48:23.592Z,3.57
2022-11-15T16:50:50.736Z,4.30
2022-11-15T16:53:17.604Z,4.50
2022-11-15T16:55:44.357Z,3.97
2022-11-15T16:58:11.174Z,3.10
2022-11-15T17:00:38.050Z,5.63
2022-11-15T17:03:04.961Z,2.13
2022-11-15T17:05:31.770Z,5.53
2022-11-15T17:07:58.639Z,3.00
2022-11-15T17:10:26.828Z,2.47
2022-11-15T17:12:55.156Z,3.53
2022-11-15T17:15:22.447Z,5.77
2022-11-15T17:17:53.743Z,3.57
2022-11-15T17:20:22.392Z,3.70
2022-11-15T17:22:49.461Z,4.30
2022-11-15T17:25:16.325Z,3.40
2022-11-15T17:27:43.200Z,7.27
2022-11-15T17:30:12.680Z,3.50
2022-11-15T17:32:39.512Z,8.47
2022-11-15T17:35:15.035Z,3.33
2022-11-15T17:37:42.756Z,6.43
2022-11-15T17:40:10.225Z,3.53
2022-11-15T17:42:37.022Z,2.57
2022-11-15T17:45:09.565Z,5.37
2022-11-15T17:47:36.887Z,3.40
2022-11-15T17:50:04.067Z,4.37
2022-11-15T17:52:31.042Z,6.17
2022-11-15T17:54:57.915Z,4.50
2022-11-15T17:57:24.674Z,3.63
2022-11-15T17:59:51.554Z,3.13
2022-11-15T18:02:19.513Z,4.07
2022-11-15T18:04:46.239Z,8.00
2022-11-15T18:07:14.176Z,5.73
2022-11-15T18:09:43.956Z,3.97
2022-11-15T18:12:11.903Z,3.30
2022-11-15T18:14:39.208Z,5.67
2022-11-15T18:17:06.062Z,5.03
2022-11-15T18:19:32.940Z,4.57
2022-11-15T18:22:00.873Z,3.67
2022-11-15T18:24:32.237Z,5.50
2022-11-15T18:26:59.917Z,4.03
2022-11-15T18:29:26.968Z,4.03
2022-11-15T18:31:59.053Z,6.07
2022-11-15T18:34:31.959Z,5.93
2022-11-15T18:36:59.603Z,6.73
2022-11-15T18:39:26.626Z,5.63
2022-11-15T18:41:53.569Z,5.60
2022-11-15T18:44:20.531Z,6.00
2022-11-15T18:46:47.326Z,5.43
2022-11-15T18:49:16.632Z,5.10
2022-11-15T18:51:43.591Z,5.10
2022-11-15T18:54:12.058Z,4.23
2022-11-15T18:56:39.417Z,6.97
2022-11-15T18:59:08.291Z,4.37
2022-11-15T19:01:37.627Z,6.13
2022-11-15T19:04:07.512Z,5.57
2022-11-15T19:06:38.276Z,4.80
2022-11-15T19:09:05.393Z,5.60
2022-11-15T19:11:35.842Z,4.47
2022-11-15T19:14:08.182Z,4.67
2022-11-15T19:16:37.583Z,5.20
2022-11-15T19:19:07.393Z,5.03
2022-11-15T19:21:34.662Z,5.23
2022-11-15T19:24:01.880Z,6.03
2022-11-15T19:26:29.750Z,6.33
2022-11-15T19:28:58.756Z,6.23
2022-11-15T19:31:26.820Z,6.53
2022-11-15T19:33:56.582Z,5.77
2022-11-15T19:36:28.928Z,8.13
2022-11-15T19:38:56.394Z,6.17
2022-11-15T19:41:24.564Z,6.33
2022-11-15T19:43:52.458Z,6.23
2022-11-15T19:46:21.929Z,5.70
2022-11-15T19:48:49.636Z,5.23
2022-11-15T19:51:21.841Z,6.87
2022-11-15T19:53:50.053Z,5.53
2022-11-15T19:56:18.789Z,7.10
2022-11-15T19:58:46.429Z,9.47
2022-11-15T20:01:15.015Z,7.93
2022-11-15T20:03:41.931Z,7.47
2022-11-15T20:06:11.119Z,7.13
2022-11-15T20:08:38.156Z,5.63
2022-11-15T20:11:05.898Z,5.47
2022-11-15T20:13:32.903Z,6.20
2022-11-15T20:16:00.031Z,7.83
2022-11-15T20:18:28.907Z,7.60
2022-11-15T20:20:57.982Z,5.67
2022-11-15T20:23:25.597Z,6.57
2022-11-15T20:25:52.772Z,6.27
2022-11-15T20:28:24.955Z,6.47
2022-11-15T20:30:54.178Z,5.37
2022-11-15T20:33:22.482Z,8.33
2022-11-15T20:35:49.888Z,5.37
2022-11-15T20:38:17.094Z,7.63
2022-11-15T20:40:54.819Z,7.40
2022-11-15T20:43:26.002Z,5.90
2022-11-15T20:45:52.801Z,6.57
2022-11-15T20:48:19.706Z,8.17
2022-11-15T20:50:47.681Z,6.73
2022-11-15T20:53:17.406Z,6.90
2022-11-15T20:55:49.789Z,8.97
2022-11-15T20:58:17.277Z,8.73
2022-11-15T21:00:45.698Z,8.17
2022-11-15T21:03:13.801Z,11.07
2022-11-15T21:05:42.304Z,7.63
2022-11-15T21:08:10.472Z,8.77
2022-11-15T21:10:56.279Z,6.73
2022-11-15T21:13:23.216Z,6.90
2022-11-15T21:15:50.302Z,7.60
2022-11-15T21:18:17.425Z,7.30
2022-11-15T21:20:44.284Z,8.40
2022-11-15T21:23:12.060Z,7.63
2022-11-15T21:25:38.855Z,8.40
2022-11-15T21:28:05.751Z,8.03
2022-11-15T21:30:32.539Z,8.23
2022-11-15T21:32:59.394Z,7.77
2022-11-15T21:35:26.241Z,8.03
2022-11-15T21:37:56.746Z,8.60
2022-11-15T21:40:25.291Z,9.63
2022-11-15T21:42:52.079Z,7.83
2022-11-15T21:45:18.862Z,8.90
2022-11-15T21:47:46.579Z,8.93
2022-11-15T21:50:14.189Z,10.63
2022-11-15T21:52:41.359Z,9.63
2022-11-15T21:55:09.119Z,9.03
2022-11-15T21:57:35.897Z,8.87
2022-11-15T22:00:21.729Z,8.87
2022-11-15T22:02:48.562Z,9.80
2022-11-15T22:05:15.604Z,9.77
2022-11-15T22:07:42.367Z,7.97
2022-11-15T22:10:09.406Z,9.70
2022-11-15T22:12:36.301Z,8.97
2022-11-15T22:15:03.214Z,12.43
2022-11-15T22:17:49.917Z,7.67
2022-11-15T22:20:43.011Z,7.10
2022-11-15T22:23:04.164Z,7.63
2022-11-15T22:25:31.082Z,8.13
2022-11-15T22:27:57.961Z,10.00
2022-11-15T22:30:25.254Z,6.90
2022-11-15T22:32:51.965Z,6.90
2022-11-15T22:35:18.849Z,6.70
2022-11-15T22:37:45.796Z,7.40
2022-11-15T22:40:12.637Z,7.20
2022-11-15T22:42:39.431Z,6.90
2022-11-15T22:45:06.665Z,8.90
2022-11-15T22:47:33.521Z,7.27
2022-11-15T22:50:00.326Z,8.80
2022-11-15T22:52:27.260Z,7.23
2022-11-15T22:54:54.051Z,7.00
2022-11-15T22:57:20.873Z,7.17
2022-11-15T22:59:47.740Z,7.43
2022-11-15T23:02:14.462Z,7.33
2022-11-15T23:04:41.209Z,6.70
2022-11-15T23:07:08.025Z,10.03
2022-11-15T23:09:34.968Z,8.63
2022-11-15T23:12:20.344Z,8.13
2022-11-15T23:14:47.124Z,6.77
2022-11-15T23:17:14.015Z,7.80
2022-11-15T23:19:40.823Z,8.57
2022-11-15T23:22:26.389Z,8.07
2022-11-15T23:24:53.345Z,7.67
2022-11-15T23:27:20.708Z,7.47
2022-11-15T23:30:06.205Z,10.23
2022-11-15T23:32:51.673Z,7.10
2022-11-15T23:35:18.529Z,7.90
2022-11-15T23:37:45.524Z,9.10
2022-11-15T23:40:12.661Z,7.83
2022-11-15T23:42:39.421Z,9.47
2022-11-15T23:45:06.828Z,8.57
2022-11-15T23:47:33.708Z,8.87
2022-11-15T23:50:00.523Z,7.50
2022-11-15T23:52:27.491Z,6.70
2022-11-15T23:54:54.228Z,8.07
2022-11-15T23:57:21.010Z,6.90
2022-11-15T23:59:47.821Z,8.33
